createdAt,value
2019-05-26T00:01:45.880Z,101187.01
2019-05-26T00:04:11.624Z,101183.77
2019-05-26T00:06:37.075Z,101182.66
2019-05-26T00:09:02.617Z,101176.14
2019-05-26T00:11:28.022Z,101174.45
2019-05-26T00:13:53.745Z,101180.61
2019-05-26T00:16:19.194Z,101173.09
2019-05-26T00:18:44.668Z,101165.98
2019-05-26T00:21:10.119Z,101172.01
2019-05-26T00:23:35.610Z,101167.59
2019-05-26T00:26:01.075Z,101167.77
2019-05-26T00:28:26.551Z,101168.41
2019-05-26T00:30:53.231Z,101169.28
2019-05-26T00:33:18.886Z,101165.52
2019-05-26T00:35:45.015Z,101170.69
2019-05-26T00:38:10.646Z,101157.00
2019-05-26T00:40:36.665Z,101157.62
2019-05-26T00:43:02.343Z,101154.66
2019-05-26T00:45:29.179Z,101150.77
2019-05-26T00:47:55.037Z,101152.70
2019-05-26T00:50:20.889Z,101153.11
2019-05-26T00:52:47.215Z,101141.38
2019-05-26T00:55:13.369Z,101138.80
2019-05-26T00:57:39.526Z,101138.06
2019-05-26T01:00:05.474Z,101143.94
2019-05-26T01:02:31.100Z,101145.19
2019-05-26T01:04:56.673Z,101145.55
2019-05-26T01:07:22.556Z,101144.70
2019-05-26T01:09:49.111Z,101144.45
2019-05-26T01:12:14.844Z,101147.34
2019-05-26T01:14:40.239Z,101142.19
2019-05-26T01:17:05.975Z,101140.50
2019-05-26T01:19:31.724Z,101138.14
2019-05-26T01:21:57.157Z,101141.31
2019-05-26T01:24:22.629Z,101137.95
2019-05-26T01:26:48.094Z,101137.70
2019-05-26T01:29:13.560Z,101140.25
2019-05-26T01:31:39.271Z,101145.87
2019-05-26T01:34:04.744Z,101147.75
2019-05-26T01:36:30.680Z,101146.73
2019-05-26T01:38:56.955Z,101148.77
2019-05-26T01:41:22.427Z,101149.11
2019-05-26T01:43:47.903Z,101143.77
2019-05-26T01:46:13.400Z,101148.56
2019-05-26T01:48:38.886Z,101144.27
2019-05-26T01:51:04.366Z,101148.52
2019-05-26T01:53:29.788Z,101134.70
2019-05-26T01:55:55.521Z,101136.73
2019-05-26T01:58:21.062Z,101133.95
2019-05-26T02:00:46.944Z,101137.87
2019-05-26T02:03:12.688Z,101140.18
2019-05-26T02:05:38.150Z,101143.39
2019-05-26T02:08:03.606Z,101143.55
2019-05-26T02:10:29.085Z,101145.70
2019-05-26T02:12:54.446Z,101142.14
2019-05-26T02:15:20.980Z,101138.84
2019-05-26T02:17:46.445Z,101140.48
2019-05-26T02:20:12.547Z,101139.33
2019-05-26T02:22:38.593Z,101140.47
2019-05-26T02:25:04.189Z,101141.13
2019-05-26T02:27:29.772Z,101131.41
2019-05-26T02:29:55.279Z,101132.97
2019-05-26T02:32:20.740Z,101139.74
2019-05-26T02:34:46.217Z,101130.33
2019-05-26T02:37:11.651Z,101127.11
2019-05-26T02:39:37.386Z,101121.05
2019-05-26T02:42:02.868Z,101114.78
2019-05-26T02:44:28.244Z,101118.53
2019-05-26T02:46:53.734Z,101118.27
2019-05-26T02:49:19.187Z,101123.41
2019-05-26T02:51:44.916Z,101120.22
2019-05-26T02:54:10.640Z,101123.65
2019-05-26T02:56:36.104Z,101117.81
2019-05-26T02:59:01.465Z,101119.42
2019-05-26T03:01:28.046Z,101115.56
2019-05-26T03:03:54.100Z,101117.14
2019-05-26T03:06:20.781Z,101116.11
2019-05-26T03:08:48.399Z,101115.78
2019-05-26T03:11:14.738Z,101114.50
2019-05-26T03:13:42.498Z,101108.97
2019-05-26T03:16:14.064Z,101102.57
2019-05-26T03:18:43.105Z,101102.25
2019-05-26T03:21:08.565Z,101114.02
2019-05-26T03:23:34.039Z,101112.31
2019-05-26T03:26:01.485Z,101107.39
2019-05-26T03:28:26.881Z,101111.47
2019-05-26T03:30:52.686Z,101119.45
2019-05-26T03:33:18.156Z,101117.42
2019-05-26T03:35:43.619Z,101116.27
2019-05-26T03:38:09.392Z,101103.16
2019-05-26T03:40:34.864Z,101122.01
2019-05-26T03:43:00.340Z,101117.84
2019-05-26T03:45:31.310Z,101122.02
2019-05-26T03:47:57.323Z,101126.27
2019-05-26T03:50:22.801Z,101122.11
2019-05-26T03:52:48.290Z,101128.19
2019-05-26T03:55:13.852Z,101122.24
2019-05-26T03:57:39.554Z,101115.92
2019-05-26T04:00:06.051Z,101117.94
2019-05-26T04:02:32.039Z,101114.22
2019-05-26T04:04:57.819Z,101106.98
2019-05-26T04:07:23.347Z,101108.03
2019-05-26T04:10:03.907Z,101105.06
2019-05-26T04:12:15.948Z,101111.14
2019-05-26T04:14:41.346Z,101110.28
2019-05-26T04:17:06.797Z,101107.61
2019-05-26T04:19:32.639Z,101098.88
2019-05-26T04:21:58.107Z,101096.62
2019-05-26T04:24:23.828Z,101088.31
2019-05-26T04:26:49.221Z,101088.31
2019-05-26T04:29:14.709Z,101088.73
2019-05-26T04:31:40.185Z,101089.70
2019-05-26T04:34:05.648Z,101089.38
2019-05-26T04:36:31.109Z,101093.12
2019-05-26T04:38:59.003Z,101093.42
2019-05-26T04:41:24.464Z,101087.77
2019-05-26T04:43:49.956Z,101095.55
2019-05-26T04:46:15.413Z,101100.67
2019-05-26T04:48:40.855Z,101095.05
2019-05-26T04:51:07.247Z,101089.80
2019-05-26T04:53:32.704Z,101088.19
2019-05-26T04:55:58.198Z,101097.16
2019-05-26T04:58:23.666Z,101093.66
2019-05-26T05:00:49.689Z,101097.61
2019-05-26T05:03:15.118Z,101096.08
2019-05-26T05:05:44.228Z,101084.57
2019-05-26T05:08:09.947Z,101085.63
2019-05-26T05:10:42.249Z,101076.37
2019-05-26T05:13:03.919Z,101084.37
2019-05-26T05:15:29.755Z,101078.20
2019-05-26T05:17:55.359Z,101076.57
2019-05-26T05:20:21.728Z,101080.64
2019-05-26T05:22:47.307Z,101068.45
2019-05-26T05:25:14.980Z,101069.82
2019-05-26T05:27:57.606Z,101066.33
2019-05-26T05:30:26.333Z,101067.13
2019-05-26T05:32:53.303Z,101067.19
2019-05-26T05:35:20.101Z,101064.80
2019-05-26T05:37:46.311Z,101064.31
2019-05-26T05:40:18.139Z,101069.17
2019-05-26T05:42:47.976Z,101069.47
2019-05-26T05:45:13.570Z,101073.27
2019-05-26T05:47:39.088Z,101068.34
2019-05-26T05:50:05.103Z,101074.55
2019-05-26T05:52:30.843Z,101065.45
2019-05-26T05:54:56.514Z,101066.11
2019-05-26T05:57:22.063Z,101061.44
2019-05-26T05:59:47.519Z,101067.13
2019-05-26T06:02:13.222Z,101062.75
2019-05-26T06:04:38.730Z,101064.65
2019-05-26T06:07:04.190Z,101068.88
2019-05-26T06:09:29.683Z,101063.50
2019-05-26T06:11:56.988Z,101060.95
2019-05-26T06:14:22.472Z,101060.33
2019-05-26T06:16:49.511Z,101052.18
2019-05-26T06:19:15.043Z,101055.30
2019-05-26T06:21:40.823Z,101053.10
2019-05-26T06:24:06.446Z,101050.27
2019-05-26T06:26:32.027Z,101057.00
2019-05-26T06:28:57.781Z,101057.80
2019-05-26T06:31:23.629Z,101057.29
2019-05-26T06:33:51.861Z,101060.09
2019-05-26T06:36:19.929Z,101061.50
2019-05-26T06:38:45.450Z,101061.84
2019-05-26T06:41:11.223Z,101058.95
2019-05-26T06:43:39.526Z,101061.05
2019-05-26T06:46:04.990Z,101059.38
2019-05-26T06:48:31.025Z,101055.50
2019-05-26T06:50:57.199Z,101057.87
2019-05-26T06:53:28.260Z,101056.72
2019-05-26T06:55:54.420Z,101058.64
2019-05-26T06:58:20.275Z,101054.81
2019-05-26T07:01:09.897Z,101054.48
2019-05-26T07:03:35.689Z,101055.87
2019-05-26T07:06:01.233Z,101063.21
2019-05-26T07:08:27.444Z,101056.23
2019-05-26T07:10:54.733Z,101060.23
2019-05-26T07:13:20.921Z,101058.59
2019-05-26T07:15:46.981Z,101064.52
2019-05-26T07:18:12.596Z,101059.06
2019-05-26T07:20:38.357Z,101057.32
2019-05-26T07:23:08.346Z,101050.03
2019-05-26T07:25:34.606Z,101054.37
2019-05-26T07:28:00.611Z,101052.34
2019-05-26T07:30:26.572Z,101059.98
2019-05-26T07:32:52.078Z,101060.36
2019-05-26T07:35:17.767Z,101058.28
2019-05-26T07:37:43.233Z,101045.05
2019-05-26T07:40:09.485Z,101050.03
2019-05-26T07:42:34.987Z,101042.30
2019-05-26T07:45:00.668Z,101039.96
2019-05-26T07:47:26.233Z,101042.20
2019-05-26T07:49:51.748Z,101041.13
2019-05-26T07:52:17.368Z,101047.02
2019-05-26T07:54:43.054Z,101044.23
2019-05-26T07:57:08.490Z,101041.81
2019-05-26T07:59:34.175Z,101041.36
2019-05-26T08:01:59.742Z,101043.28
2019-05-26T08:04:25.651Z,101033.16
2019-05-26T08:06:51.466Z,101030.76
2019-05-26T08:09:17.729Z,101028.97
2019-05-26T08:11:43.685Z,101028.27
2019-05-26T08:14:09.192Z,101033.58
2019-05-26T08:16:36.252Z,101028.12
2019-05-26T08:19:01.751Z,101035.91
2019-05-26T08:21:27.458Z,101034.63
2019-05-26T08:23:53.541Z,101039.30
2019-05-26T08:26:19.126Z,101028.88
2019-05-26T08:28:44.930Z,101023.77
2019-05-26T08:31:13.353Z,101026.52
2019-05-26T08:33:40.609Z,101025.03
2019-05-26T08:36:06.241Z,101028.38
2019-05-26T08:38:32.236Z,101020.91
2019-05-26T08:40:58.170Z,101007.92
2019-05-26T08:43:24.217Z,101012.98
2019-05-26T08:45:49.762Z,101016.79
2019-05-26T08:48:15.693Z,101015.30
2019-05-26T08:50:42.294Z,101007.64
2019-05-26T08:53:08.191Z,100999.97
2019-05-26T08:55:33.682Z,101003.48
2019-05-26T08:57:59.391Z,101002.56
2019-05-26T09:00:25.676Z,100999.83
2019-05-26T09:02:51.225Z,100997.92
2019-05-26T09:05:22.069Z,100994.13
2019-05-26T09:07:48.381Z,100995.84
2019-05-26T09:10:15.084Z,100994.38
2019-05-26T09:12:40.954Z,100996.27
2019-05-26T09:15:07.111Z,100990.99
2019-05-26T09:17:38.746Z,100999.37
2019-05-26T09:20:10.965Z,100992.95
2019-05-26T09:22:34.820Z,100989.65
2019-05-26T09:25:00.267Z,100987.80
2019-05-26T09:27:25.915Z,100991.26
2019-05-26T09:29:51.663Z,100993.71
2019-05-26T09:32:17.112Z,100986.17
2019-05-26T09:34:42.951Z,100991.78
2019-05-26T09:37:08.596Z,100984.72
2019-05-26T09:39:35.172Z,100986.41
2019-05-26T09:42:00.681Z,100984.84
2019-05-26T09:44:26.325Z,100978.77
2019-05-26T09:46:52.150Z,100981.05
2019-05-26T09:49:17.811Z,100969.95
2019-05-26T09:51:52.648Z,100970.38
2019-05-26T09:54:18.354Z,100975.31
2019-05-26T09:56:44.027Z,100966.19
2019-05-26T09:59:10.354Z,100969.88
2019-05-26T10:01:35.994Z,100970.27
2019-05-26T10:04:01.538Z,100967.88
2019-05-26T10:06:27.009Z,100965.45
2019-05-26T10:08:53.247Z,100961.81
2019-05-26T10:11:18.743Z,100964.53
2019-05-26T10:13:44.538Z,100963.80
2019-05-26T10:16:10.093Z,100955.44
2019-05-26T10:18:35.524Z,100958.56
2019-05-26T10:21:00.991Z,100954.85
2019-05-26T10:23:28.971Z,100953.13
2019-05-26T10:25:54.682Z,100950.77
2019-05-26T10:28:20.288Z,100950.62
2019-05-26T10:30:46.081Z,100948.97
2019-05-26T10:33:11.852Z,100949.95
2019-05-26T10:35:37.361Z,100948.48
2019-05-26T10:38:02.886Z,100944.80
2019-05-26T10:40:28.460Z,100946.45
2019-05-26T10:42:54.185Z,100949.86
2019-05-26T10:45:19.784Z,100956.60
2019-05-26T10:47:45.428Z,100958.00
2019-05-26T10:50:13.462Z,100954.71
2019-05-26T10:52:39.212Z,100956.41
2019-05-26T10:55:04.907Z,100949.05
2019-05-26T10:57:30.714Z,100952.67
2019-05-26T10:59:56.271Z,100947.77
2019-05-26T11:02:22.338Z,100943.59
2019-05-26T11:04:47.927Z,100949.05
2019-05-26T11:07:13.584Z,100943.45
2019-05-26T11:09:39.224Z,100944.73
2019-05-26T11:12:04.929Z,100940.14
2019-05-26T11:14:30.653Z,100945.48
2019-05-26T11:16:56.131Z,100941.97
2019-05-26T11:19:21.849Z,100942.42
2019-05-26T11:21:48.134Z,100944.23
2019-05-26T11:24:13.987Z,100942.05
2019-05-26T11:26:39.574Z,100931.84
2019-05-26T11:29:05.255Z,100924.28
2019-05-26T11:31:31.079Z,100925.93
2019-05-26T11:33:56.751Z,100919.69
2019-05-26T11:36:23.078Z,100916.67
2019-05-26T11:38:48.569Z,100914.02
2019-05-26T11:41:16.405Z,100912.88
2019-05-26T11:43:41.875Z,100908.41
2019-05-26T11:46:07.981Z,100911.99
2019-05-26T11:48:33.406Z,100902.19
2019-05-26T11:50:59.274Z,100905.30
2019-05-26T11:53:24.692Z,100898.06
2019-05-26T11:55:50.561Z,100893.03
2019-05-26T11:58:16.058Z,100882.95
2019-05-26T12:00:42.110Z,100886.98
2019-05-26T12:03:07.815Z,100880.92
2019-05-26T12:05:33.288Z,100874.18
2019-05-26T12:07:58.962Z,100879.22
2019-05-26T12:10:24.433Z,100876.68
2019-05-26T12:12:50.591Z,100882.33
2019-05-26T12:15:16.999Z,100882.95
2019-05-26T12:17:42.842Z,100878.45
2019-05-26T12:20:09.170Z,100875.64
2019-05-26T12:22:34.943Z,100875.12
2019-05-26T12:25:01.756Z,100875.39
2019-05-26T12:27:27.822Z,100871.09
2019-05-26T12:29:53.712Z,100868.11
2019-05-26T12:32:25.432Z,100871.22
2019-05-26T12:34:52.209Z,100871.80
2019-05-26T12:37:17.871Z,100861.11
2019-05-26T12:39:43.385Z,100859.74
2019-05-26T12:42:09.368Z,100857.25
2019-05-26T12:44:49.139Z,100861.53
2019-05-26T12:47:05.274Z,100849.52
2019-05-26T12:49:30.908Z,100852.72
2019-05-26T12:51:56.360Z,100849.95
2019-05-26T12:54:22.373Z,100848.04
2019-05-26T12:56:47.889Z,100841.33
2019-05-26T12:59:13.339Z,100842.73
2019-05-26T13:01:39.356Z,100842.25
2019-05-26T13:04:05.038Z,100840.87
2019-05-26T13:06:30.770Z,100846.83
2019-05-26T13:08:56.389Z,100844.22
2019-05-26T13:11:22.889Z,100835.80
2019-05-26T13:13:49.124Z,100834.97
2019-05-26T13:16:14.715Z,100829.75
2019-05-26T13:18:40.631Z,100823.91
2019-05-26T13:21:06.143Z,100823.59
2019-05-26T13:23:31.925Z,100836.78
2019-05-26T13:25:57.359Z,100820.28
2019-05-26T13:28:25.259Z,100821.13
2019-05-26T13:30:50.792Z,100826.44
2019-05-26T13:33:16.412Z,100820.80
2019-05-26T13:35:42.026Z,100826.41
2019-05-26T13:38:07.574Z,100820.53
2019-05-26T13:40:33.613Z,100816.58
2019-05-26T13:42:59.085Z,100826.41
2019-05-26T13:45:24.801Z,100823.61
2019-05-26T13:47:55.820Z,100814.65
2019-05-26T13:50:33.143Z,100807.63
2019-05-26T13:53:03.798Z,100814.11
2019-05-26T13:55:29.470Z,100809.87
2019-05-26T13:57:55.249Z,100797.83
2019-05-26T14:00:23.755Z,100798.41
2019-05-26T14:02:49.311Z,100794.48
2019-05-26T14:05:24.921Z,100798.42
2019-05-26T14:07:50.710Z,100796.45
2019-05-26T14:10:38.492Z,100792.80
2019-05-26T14:13:05.789Z,100795.03
2019-05-26T14:15:38.689Z,100789.11
2019-05-26T14:18:02.565Z,100793.05
2019-05-26T14:20:59.543Z,100789.98
2019-05-26T14:23:29.378Z,100793.30
2019-05-26T14:26:07.275Z,100791.12
2019-05-26T14:28:43.150Z,100780.45
2019-05-26T14:31:08.945Z,100777.64
2019-05-26T14:33:34.514Z,100779.32
2019-05-26T14:35:59.995Z,100772.05
2019-05-26T14:38:25.582Z,100774.27
2019-05-26T14:40:51.068Z,100773.42
2019-05-26T14:43:16.541Z,100768.38
2019-05-26T14:45:53.017Z,100769.22
2019-05-26T14:48:10.378Z,100766.70
2019-05-26T14:50:35.872Z,100769.19
2019-05-26T14:53:01.362Z,100773.09
2019-05-26T14:55:26.882Z,100761.57
2019-05-26T14:58:18.958Z,100764.69
2019-05-26T15:00:44.843Z,100771.67
2019-05-26T15:03:14.796Z,100768.61
2019-05-26T15:05:46.318Z,100763.58
2019-05-26T15:08:16.915Z,100762.14
2019-05-26T15:10:44.765Z,100764.92
2019-05-26T15:13:20.164Z,100753.45
2019-05-26T15:15:47.793Z,100743.33
2019-05-26T15:18:22.486Z,100741.11
2019-05-26T15:20:48.081Z,100745.86
2019-05-26T15:23:13.609Z,100741.07
2019-05-26T15:25:39.392Z,100735.73
2019-05-26T15:28:05.820Z,100729.28
2019-05-26T15:30:31.322Z,100728.70
2019-05-26T15:32:56.981Z,100726.44
2019-05-26T15:35:22.619Z,100725.31
2019-05-26T15:37:48.119Z,100719.44
2019-05-26T15:40:14.934Z,100718.29
2019-05-26T15:42:40.808Z,100716.86
2019-05-26T15:45:06.782Z,100721.08
2019-05-26T15:47:32.282Z,100721.08
2019-05-26T15:49:57.841Z,100717.38
2019-05-26T15:52:23.653Z,100717.41
2019-05-26T15:54:49.168Z,100710.64
2019-05-26T15:57:14.718Z,100708.92
2019-05-26T15:59:40.289Z,100711.45
2019-05-26T16:02:06.309Z,100706.14
2019-05-26T16:04:34.242Z,100706.12
2019-05-26T16:07:06.883Z,100707.00
2019-05-26T16:09:32.422Z,100703.30
2019-05-26T16:11:58.004Z,100704.72
2019-05-26T16:14:25.508Z,100699.62
2019-05-26T16:16:51.576Z,100703.20
2019-05-26T16:19:23.703Z,100693.12
2019-05-26T16:21:49.547Z,100690.66
2019-05-26T16:24:16.618Z,100691.17
2019-05-26T16:26:42.839Z,100689.73
2019-05-26T16:29:15.173Z,100688.33
2019-05-26T16:31:40.717Z,100688.11
2019-05-26T16:34:15.697Z,100680.17
2019-05-26T16:36:41.260Z,100684.96
2019-05-26T16:39:08.752Z,100679.06
2019-05-26T16:41:34.267Z,100679.58
2019-05-26T16:44:00.459Z,100672.61
2019-05-26T16:46:25.923Z,100672.89
2019-05-26T16:48:54.565Z,100671.48
2019-05-26T16:51:19.795Z,100665.34
2019-05-26T16:53:46.021Z,100661.10
2019-05-26T16:56:19.952Z,100661.63
2019-05-26T16:58:51.413Z,100661.41
2019-05-26T17:01:17.146Z,100662.26
2019-05-26T17:03:42.789Z,100658.64
2019-05-26T17:06:13.235Z,100656.41
2019-05-26T17:08:39.414Z,100649.09
2019-05-26T17:11:05.383Z,100653.95
2019-05-26T17:13:32.946Z,100645.79
2019-05-26T17:16:08.176Z,100639.64
2019-05-26T17:18:33.596Z,100639.44
2019-05-26T17:20:59.275Z,100640.50
2019-05-26T17:23:25.217Z,100642.73
2019-05-26T17:25:51.081Z,100637.95
2019-05-26T17:28:22.720Z,100632.58
2019-05-26T17:30:48.387Z,100629.83
2019-05-26T17:33:14.166Z,100633.25
2019-05-26T17:35:39.601Z,100631.83
2019-05-26T17:38:05.599Z,100622.88
2019-05-26T17:40:31.477Z,100627.94
2019-05-26T17:42:57.097Z,100621.75
2019-05-26T17:45:25.335Z,100623.91
2019-05-26T17:47:51.233Z,100622.78
2019-05-26T17:50:18.507Z,100614.64
2019-05-26T17:52:44.741Z,100611.55
2019-05-26T17:55:12.762Z,100621.95
2019-05-26T17:57:38.560Z,100615.75
2019-05-26T18:00:05.696Z,100614.13
2019-05-26T18:02:31.348Z,100611.31
2019-05-26T18:04:56.918Z,100607.41
2019-05-26T18:07:22.680Z,100608.80
2019-05-26T18:09:48.388Z,100603.46
2019-05-26T18:12:14.099Z,100598.11
2019-05-26T18:14:39.700Z,100601.20
2019-05-26T18:17:05.211Z,100606.81
2019-05-26T18:19:30.893Z,100608.77
2019-05-26T18:21:56.501Z,100591.92
2019-05-26T18:24:22.240Z,100593.61
2019-05-26T18:26:47.722Z,100593.91
2019-05-26T18:29:13.555Z,100594.74
2019-05-26T18:31:39.077Z,100582.98
2019-05-26T18:34:04.972Z,100586.31
2019-05-26T18:36:30.629Z,100587.17
2019-05-26T18:38:56.206Z,100589.13
2019-05-26T18:41:22.495Z,100586.87
2019-05-26T18:43:48.042Z,100594.09
2019-05-26T18:46:13.623Z,100590.22
2019-05-26T18:48:39.364Z,100590.16
2019-05-26T18:51:04.760Z,100592.11
2019-05-26T18:53:30.223Z,100592.86
2019-05-26T18:55:55.684Z,100583.33
2019-05-26T18:58:21.183Z,100595.33
2019-05-26T19:00:46.711Z,100588.05
2019-05-26T19:03:12.296Z,100590.02
2019-05-26T19:05:38.604Z,100585.77
2019-05-26T19:08:04.384Z,100592.23
2019-05-26T19:10:33.166Z,100582.70
2019-05-26T19:12:58.707Z,100585.77
2019-05-26T19:15:24.330Z,100586.30
2019-05-26T19:17:50.210Z,100583.26
2019-05-26T19:20:17.312Z,100588.27
2019-05-26T19:22:42.955Z,100582.59
2019-05-26T19:25:15.519Z,100585.34
2019-05-26T19:27:41.151Z,100589.94
2019-05-26T19:30:07.927Z,100586.79
2019-05-26T19:32:33.910Z,100588.22
2019-05-26T19:34:59.807Z,100593.20
2019-05-26T19:37:25.980Z,100589.53
2019-05-26T19:39:55.808Z,100592.13
2019-05-26T19:42:21.285Z,100592.18
2019-05-26T19:44:47.031Z,100602.44
2019-05-26T19:47:12.475Z,100595.81
2019-05-26T19:49:38.044Z,100592.95
2019-05-26T19:52:03.493Z,100601.34
2019-05-26T19:54:28.960Z,100600.51
2019-05-26T19:56:54.935Z,100601.95
2019-05-26T19:59:24.839Z,100595.91
2019-05-26T20:01:50.381Z,100592.05
2019-05-26T20:04:16.274Z,100599.56
2019-05-26T20:06:44.006Z,100596.50
2019-05-26T20:09:10.691Z,100596.09
2019-05-26T20:11:36.506Z,100594.13
2019-05-26T20:14:01.882Z,100596.73
2019-05-26T20:16:30.548Z,100605.35
2019-05-26T20:18:54.680Z,100601.59
2019-05-26T20:21:20.184Z,100610.17
2019-05-26T20:23:45.633Z,100604.14
2019-05-26T20:26:11.319Z,100604.41
2019-05-26T20:28:37.881Z,100604.98
2019-05-26T20:31:03.426Z,100605.55
2019-05-26T20:33:29.158Z,100596.80
2019-05-26T20:35:55.030Z,100609.07
2019-05-26T20:38:20.856Z,100600.73
2019-05-26T20:40:46.808Z,100605.76
2019-05-26T20:43:12.384Z,100608.81
2019-05-26T20:45:37.899Z,100610.06
2019-05-26T20:48:03.483Z,100600.73
2019-05-26T20:50:29.909Z,100611.11
2019-05-26T20:52:55.788Z,100607.02
2019-05-26T20:55:21.316Z,100601.98
2019-05-26T20:57:47.146Z,100606.97
2019-05-26T21:00:14.621Z,100586.88
2019-05-26T21:02:43.311Z,100587.70
2019-05-26T21:05:09.943Z,100584.80
2019-05-26T21:07:35.491Z,100584.95
2019-05-26T21:10:00.999Z,100589.16
2019-05-26T21:12:27.809Z,100583.82
2019-05-26T21:14:53.275Z,100584.23
2019-05-26T21:17:18.728Z,100575.13
2019-05-26T21:19:44.141Z,100571.09
2019-05-26T21:22:09.578Z,100574.55
2019-05-26T21:24:35.057Z,100576.27
2019-05-26T21:27:00.614Z,100577.99
2019-05-26T21:29:26.059Z,100576.18
2019-05-26T21:31:51.668Z,100578.30
2019-05-26T21:34:17.229Z,100577.60
2019-05-26T21:36:42.798Z,100575.30
2019-05-26T21:39:09.582Z,100573.66
2019-05-26T21:41:35.234Z,100583.67
2019-05-26T21:44:03.822Z,100577.84
2019-05-26T21:46:29.393Z,100583.41
2019-05-26T21:48:57.779Z,100577.22
2019-05-26T21:51:23.331Z,100574.61
2019-05-26T21:53:48.900Z,100580.13
2019-05-26T21:56:14.759Z,100579.36
2019-05-26T21:58:40.444Z,100575.11
2019-05-26T22:01:08.514Z,100579.13
2019-05-26T22:03:33.966Z,100573.98
2019-05-26T22:05:59.872Z,100575.30
2019-05-26T22:08:25.709Z,100569.66
2019-05-26T22:10:51.323Z,100566.73
2019-05-26T22:13:16.929Z,100569.36
2019-05-26T22:15:42.792Z,100568.05
2019-05-26T22:18:08.485Z,100573.20
2019-05-26T22:20:33.967Z,100567.30
2019-05-26T22:22:59.652Z,100573.71
2019-05-26T22:25:25.125Z,100569.45
2019-05-26T22:27:50.881Z,100563.05
2019-05-26T22:30:17.011Z,100564.47
2019-05-26T22:32:42.489Z,100556.58
2019-05-26T22:35:10.103Z,100559.14
2019-05-26T22:37:35.700Z,100551.89
2019-05-26T22:40:01.337Z,100549.08
2019-05-26T22:42:26.825Z,100544.78
2019-05-26T22:44:52.315Z,100544.22
2019-05-26T22:47:17.762Z,100553.09
2019-05-26T22:49:43.201Z,100543.27
2019-05-26T22:52:08.660Z,100545.87
2019-05-26T22:54:34.177Z,100543.52
2019-05-26T22:56:59.625Z,100539.14
2019-05-26T22:59:27.556Z,100545.88
2019-05-26T23:01:53.040Z,100537.17
2019-05-26T23:04:18.502Z,100533.55
2019-05-26T23:06:43.955Z,100530.33
2019-05-26T23:09:09.822Z,100525.78
2019-05-26T23:11:35.541Z,100520.69
2019-05-26T23:14:01.360Z,100526.13
2019-05-26T23:16:27.295Z,100522.82
2019-05-26T23:18:52.782Z,100525.23
2019-05-26T23:21:18.241Z,100520.89
2019-05-26T23:23:43.684Z,100524.44
2019-05-26T23:26:09.153Z,100529.38
2019-05-26T23:28:34.897Z,100523.61
2019-05-26T23:31:00.268Z,100520.45
2019-05-26T23:33:25.721Z,100520.88
2019-05-26T23:35:51.437Z,100512.66
2019-05-26T23:38:16.907Z,100518.54
2019-05-26T23:40:42.361Z,100513.91
2019-05-26T23:43:07.732Z,100510.67
2019-05-26T23:45:33.198Z,100503.62
2019-05-26T23:47:59.070Z,100505.66
2019-05-26T23:50:24.543Z,100507.80
2019-05-26T23:52:50.016Z,100508.69
2019-05-26T23:55:15.587Z,100502.81
2019-05-26T23:57:40.930Z,100506.88
